KBXA/BXA METAR and TAF weather

Enter ICAO airport designator
Station Type Date Time Source
KBXA METAR 2021/05/14 06:35 UTC NOAA

KBXA 140635Z AUTO 00000KT 10SM CLR 15/14 A3020 RMK AO2 T01510136


Station Type Date Time Source
KBXA Decoded METAR 2021/05/14 06:35 UTC NOAA

Bogalusa, George R Carr Memorial Air Field, LA, United States (KBXA) 30-48-49N 089-51-53W
May 14, 2021 - 02:35 AM EDT / 2021.05.14 0635 UTC
Wind: Calm:0
Visibility: 10 mile(s):0
Sky conditions: clear
Temperature: 59.2 F (15.1 C)
Dew Point: 56.5 F (13.6 C)
Relative Humidity: 90%
Pressure (altimeter): 30.2 in. Hg (1022 hPa)
ob: KBXA 140635Z AUTO 00000KT 10SM CLR 15/14 A3020 RMK AO2 T01510136
cycle: 6

Station Type Date Time Source
KBXA TAF UTC NOAA

Error!

Example: see airport list